sensor_id;sensor_type;location;lat;lon;timestamp;P1;durP1;ratioP1;P2;durP2;ratioP2
77166;SDS011;66141;7.324;79.980;2022-12-18T00:00:03;30.70;;;26.45;;
77166;SDS011;66141;7.324;79.980;2022-12-18T00:00:09;31.17;;;26.33;;
77166;SDS011;66141;7.324;79.980;2022-12-18T00:00:15;31.83;;;26.55;;
77166;SDS011;66141;7.324;79.980;2022-12-18T00:00:21;32.03;;;26.70;;
77166;SDS011;66141;7.324;79.980;2022-12-18T00:00:27;32.23;;;26.87;;
77166;SDS011;66141;7.324;79.980;2022-12-18T00:00:33;32.55;;;27.10;;
77166;SDS011;66141;7.324;79.980;2022-12-18T00:00:42;33.15;;;27.40;;
77166;SDS011;66141;7.324;79.980;2022-12-18T00:00:48;31.97;;;26.83;;
77166;SDS011;66141;7.324;79.980;2022-12-18T00:00:54;31.95;;;26.88;;
77166;SDS011;66141;7.324;79.980;2022-12-18T00:01:00;32.15;;;26.90;;
77166;SDS011;66141;7.324;79.980;2022-12-18T00:01:30;31.07;;;26.67;;
77166;SDS011;66141;7.324;79.980;2022-12-18T00:01:36;31.71;;;27.59;;
77166;SDS011;66141;7.324;79.980;2022-12-18T00:01:42;33.30;;;29.00;;
77166;SDS011;66141;7.324;79.980;2022-12-18T00:01:48;33.65;;;29.27;;
77166;SDS011;66141;7.324;79.980;2022-12-18T00:01:57;33.00;;;28.80;;
77166;SDS011;66141;7.324;79.980;2022-12-18T00:02:06;32.65;;;28.33;;
77166;SDS011;66141;7.324;79.980;2022-12-18T00:02:12;31.27;;;27.52;;
77166;SDS011;66141;7.324;79.980;2022-12-18T00:02:18;30.85;;;27.27;;
77166;SDS011;66141;7.324;79.980;2022-12-18T00:02:24;30.43;;;27.00;;
77166;SDS011;66141;7.324;79.980;2022-12-18T00:02:29;30.20;;;26.48;;
77166;SDS011;66141;7.324;79.980;2022-12-18T00:02:35;30.27;;;26.35;;
77166;SDS011;66141;7.324;79.980;2022-12-18T00:02:41;30.50;;;26.48;;
77166;SDS011;66141;7.324;79.980;2022-12-18T00:02:47;30.47;;;26.10;;
77166;SDS011;66141;7.324;79.980;2022-12-18T00:02:53;30.50;;;26.08;;
77166;SDS011;66141;7.324;79.980;2022-12-18T00:02:58;30.25;;;26.02;;
77166;SDS011;66141;7.324;79.980;2022-12-18T00:03:04;30.02;;;26.08;;
77166;SDS011;66141;7.324;79.980;2022-12-18T00:03:10;29.47;;;25.63;;
77166;SDS011;66141;7.324;79.980;2022-12-18T00:03:16;29.92;;;25.90;;
77166;SDS011;66141;7.324;79.980;2022-12-18T00:03:22;30.60;;;26.33;;
77166;SDS011;66141;7.324;79.980;2022-12-18T00:03:27;31.90;;;26.95;;
77166;SDS011;66141;7.324;79.980;2022-12-18T00:03:33;32.20;;;27.02;;
77166;SDS011;66141;7.324;79.980;2022-12-18T00:03:39;32.93;;;27.67;;
77166;SDS011;66141;7.324;79.980;2022-12-18T00:03:45;32.65;;;27.80;;
77166;SDS011;66141;7.324;79.980;2022-12-18T00:03:52;32.36;;;27.92;;
77166;SDS011;66141;7.324;79.980;2022-12-18T00:03:58;31.80;;;28.10;;
77166;SDS011;66141;7.324;79.980;2022-12-18T00:04:05;31.28;;;27.84;;
77166;SDS011;66141;7.324;79.980;2022-12-18T00:04:21;30.73;;;27.40;;
77166;SDS011;66141;7.324;79.980;2022-12-18T00:04:29;30.70;;;27.23;;
77166;SDS011;66141;7.324;79.980;2022-12-18T00:04:34;31.38;;;27.28;;
77166;SDS011;66141;7.324;79.980;2022-12-18T00:04:40;32.20;;;27.67;;
77166;SDS011;66141;7.324;79.980;2022-12-18T00:04:46;32.80;;;27.88;;
77166;SDS011;66141;7.324;79.980;2022-12-18T00:04:52;32.92;;;28.20;;
77166;SDS011;66141;7.324;79.980;2022-12-18T00:05:00;33.63;;;28.60;;
77166;SDS011;66141;7.324;79.980;2022-12-18T00:05:06;33.82;;;28.98;;
77166;SDS011;66141;7.324;79.980;2022-12-18T00:05:12;33.55;;;29.10;;
77166;SDS011;66141;7.324;79.980;2022-12-18T00:05:18;33.17;;;29.10;;
77166;SDS011;66141;7.324;79.980;2022-12-18T00:05:24;33.05;;;28.73;;
77166;SDS011;66141;7.324;79.980;2022-12-18T00:05:30;31.97;;;28.13;;
77166;SDS011;66141;7.324;79.980;2022-12-18T00:05:36;31.33;;;27.60;;
77166;SDS011;66141;7.324;79.980;2022-12-18T00:05:48;30.95;;;27.25;;
77166;SDS011;66141;7.324;79.980;2022-12-18T00:05:54;30.89;;;27.10;;
77166;SDS011;66141;7.324;79.980;2022-12-18T00:05:59;31.08;;;27.52;;
77166;SDS011;66141;7.324;79.980;2022-12-18T00:06:05;31.50;;;27.98;;
77166;SDS011;66141;7.324;79.980;2022-12-18T00:06:11;31.55;;;27.88;;
77166;SDS011;66141;7.324;79.980;2022-12-18T00:06:19;31.02;;;27.18;;
77166;SDS011;66141;7.324;79.980;2022-12-18T00:06:26;30.23;;;26.23;;
77166;SDS011;66141;7.324;79.980;2022-12-18T00:06:32;30.13;;;26.23;;
77166;SDS011;66141;7.324;79.980;2022-12-18T00:06:38;30.02;;;26.27;;
77166;SDS011;66141;7.324;79.980;2022-12-18T00:06:44;30.37;;;26.43;;
77166;SDS011;66141;7.324;79.980;2022-12-18T00:06:50;30.92;;;27.23;;
77166;SDS011;66141;7.324;79.980;2022-12-18T00:06:55;31.17;;;27.40;;
77166;SDS011;66141;7.324;79.980;2022-12-18T00:07:01;31.58;;;27.42;;
77166;SDS011;66141;7.324;79.980;2022-12-18T00:07:08;31.97;;;27.50;;
77166;SDS011;66141;7.324;79.980;2022-12-18T00:07:14;31.80;;;27.65;;
77166;SDS011;66141;7.324;79.980;2022-12-18T00:07:19;31.52;;;26.98;;
77166;SDS011;66141;7.324;79.980;2022-12-18T00:07:25;31.73;;;27.00;;
77166;SDS011;66141;7.324;79.980;2022-12-18T00:07:31;31.63;;;27.23;;
77166;SDS011;66141;7.324;79.980;2022-12-18T00:07:37;31.17;;;27.20;;
77166;SDS011;66141;7.324;79.980;2022-12-18T00:07:43;31.27;;;27.48;;
77166;SDS011;66141;7.324;79.980;2022-12-18T00:07:49;31.17;;;27.70;;
77166;SDS011;66141;7.324;79.980;2022-12-18T00:07:54;31.23;;;27.83;;
77166;SDS011;66141;7.324;79.980;2022-12-18T00:08:00;30.50;;;27.17;;
77166;SDS011;66141;7.324;79.980;2022-12-18T00:08:06;30.77;;;27.25;;
77166;SDS011;66141;7.324;79.980;2022-12-18T00:08:12;31.27;;;27.40;;
77166;SDS011;66141;7.324;79.980;2022-12-18T00:08:18;31.33;;;27.65;;
77166;SDS011;66141;7.324;79.980;2022-12-18T00:08:24;31.23;;;27.48;;
77166;SDS011;66141;7.324;79.980;2022-12-18T00:08:30;32.00;;;27.83;;
77166;SDS011;66141;7.324;79.980;2022-12-18T00:08:36;31.80;;;27.60;;
77166;SDS011;66141;7.324;79.980;2022-12-18T00:08:42;30.70;;;27.03;;
77166;SDS011;66141;7.324;79.980;2022-12-18T00:08:48;30.83;;;26.77;;
77166;SDS011;66141;7.324;79.980;2022-12-18T00:08:54;31.17;;;27.15;;
77166;SDS011;66141;7.324;79.980;2022-12-18T00:09:01;30.90;;;27.33;;
77166;SDS011;66141;7.324;79.980;2022-12-18T00:09:07;31.33;;;27.35;;
77166;SDS011;66141;7.324;79.980;2022-12-18T00:09:13;31.90;;;27.47;;
77166;SDS011;66141;7.324;79.980;2022-12-18T00:09:19;32.17;;;27.55;;
77166;SDS011;66141;7.324;79.980;2022-12-18T00:09:24;32.47;;;27.95;;
77166;SDS011;66141;7.324;79.980;2022-12-18T00:09:30;32.85;;;28.17;;
77166;SDS011;66141;7.324;79.980;2022-12-18T00:09:36;32.58;;;28.13;;
77166;SDS011;66141;7.324;79.980;2022-12-18T00:09:42;32.30;;;28.27;;
77166;SDS011;66141;7.324;79.980;2022-12-18T00:09:48;32.05;;;28.17;;
77166;SDS011;66141;7.324;79.980;2022-12-18T00:09:54;31.50;;;27.80;;
77166;SDS011;66141;7.324;79.980;2022-12-18T00:09:59;31.20;;;27.48;;
77166;SDS011;66141;7.324;79.980;2022-12-18T00:10:05;31.15;;;27.40;;
77166;SDS011;66141;7.324;79.980;2022-12-18T00:10:11;30.63;;;26.88;;
77166;SDS011;66141;7.324;79.980;2022-12-18T00:10:17;30.17;;;26.30;;
77166;SDS011;66141;7.324;79.980;2022-12-18T00:10:23;30.05;;;25.83;;
77166;SDS011;66141;7.324;79.980;2022-12-18T00:10:29;29.83;;;25.57;;
77166;SDS011;66141;7.324;79.980;2022-12-18T00:10:35;30.23;;;25.75;;
77166;SDS011;66141;7.324;79.980;2022-12-18T00:10:41;30.48;;;26.17;;
77166;SDS011;66141;7.324;79.980;2022-12-18T00:10:47;31.07;;;26.80;;
77166;SDS011;66141;7.324;79.980;2022-12-18T00:10:54;31.45;;;26.90;;
77166;SDS011;66141;7.324;79.980;2022-12-18T00:11:06;31.10;;;26.97;;
77166;SDS011;66141;7.324;79.980;2022-12-18T00:11:19;31.09;;;26.76;;
77166;SDS011;66141;7.324;79.980;2022-12-18T00:11:26;31.21;;;27.26;;
77166;SDS011;66141;7.324;79.980;2022-12-18T00:11:32;32.10;;;28.06;;
77166;SDS011;66141;7.324;79.980;2022-12-18T00:11:38;31.93;;;28.10;;
77166;SDS011;66141;7.324;79.980;2022-12-18T00:11:44;32.20;;;28.48;;
77166;SDS011;66141;7.324;79.980;2022-12-18T00:11:50;32.75;;;28.85;;
77166;SDS011;66141;7.324;79.980;2022-12-18T00:11:56;32.63;;;28.95;;
77166;SDS011;66141;7.324;79.980;2022-12-18T00:12:01;32.50;;;28.90;;
77166;SDS011;66141;7.324;79.980;2022-12-18T00:12:07;32.27;;;28.73;;
77166;SDS011;66141;7.324;79.980;2022-12-18T00:12:13;32.40;;;28.27;;
77166;SDS011;66141;7.324;79.980;2022-12-18T00:12:19;32.33;;;28.10;;
77166;SDS011;66141;7.324;79.980;2022-12-18T00:12:25;32.17;;;28.08;;
77166;SDS011;66141;7.324;79.980;2022-12-18T00:12:30;32.37;;;28.07;;
77166;SDS011;66141;7.324;79.980;2022-12-18T00:12:36;32.58;;;28.23;;
77166;SDS011;66141;7.324;79.980;2022-12-18T00:12:42;32.53;;;28.48;;
77166;SDS011;66141;7.324;79.980;2022-12-18T00:12:48;31.95;;;27.90;;
77166;SDS011;66141;7.324;79.980;2022-12-18T00:12:53;31.98;;;27.67;;
77166;SDS011;66141;7.324;79.980;2022-12-18T00:12:59;31.60;;;27.50;;
77166;SDS011;66141;7.324;79.980;2022-12-18T00:13:05;31.33;;;27.42;;
77166;SDS011;66141;7.324;79.980;2022-12-18T00:13:11;30.85;;;27.05;;
77166;SDS011;66141;7.324;79.980;2022-12-18T00:13:17;31.00;;;26.80;;
77166;SDS011;66141;7.324;79.980;2022-12-18T00:13:23;31.42;;;27.17;;
77166;SDS011;66141;7.324;79.980;2022-12-18T00:13:29;31.48;;;27.00;;
77166;SDS011;66141;7.324;79.980;2022-12-18T00:13:35;32.00;;;26.92;;
77166;SDS011;66141;7.324;79.980;2022-12-18T00:13:41;32.17;;;27.30;;
77166;SDS011;66141;7.324;79.980;2022-12-18T00:13:47;32.20;;;27.75;;
77166;SDS011;66141;7.324;79.980;2022-12-18T00:13:53;32.20;;;27.87;;
77166;SDS011;66141;7.324;79.980;2022-12-18T00:13:59;32.73;;;28.07;;
77166;SDS011;66141;7.324;79.980;2022-12-18T00:14:06;32.70;;;28.27;;
77166;SDS011;66141;7.324;79.980;2022-12-18T00:14:12;32.83;;;28.35;;
77166;SDS011;66141;7.324;79.980;2022-12-18T00:14:18;33.27;;;28.70;;
77166;SDS011;66141;7.324;79.980;2022-12-18T00:14:24;32.27;;;28.00;;
77166;SDS011;66141;7.324;79.980;2022-12-18T00:14:29;31.75;;;27.77;;
77166;SDS011;66141;7.324;79.980;2022-12-18T00:14:35;31.90;;;27.90;;
77166;SDS011;66141;7.324;79.980;2022-12-18T00:14:44;31.58;;;27.48;;
77166;SDS011;66141;7.324;79.980;2022-12-18T00:14:50;30.33;;;26.73;;
77166;SDS011;66141;7.324;79.980;2022-12-18T00:14:56;30.58;;;26.88;;
77166;SDS011;66141;7.324;79.980;2022-12-18T00:15:02;30.63;;;26.77;;
77166;SDS011;66141;7.324;79.980;2022-12-18T00:15:08;30.33;;;26.42;;
77166;SDS011;66141;7.324;79.980;2022-12-18T00:15:14;30.65;;;26.73;;
77166;SDS011;66141;7.324;79.980;2022-12-18T00:15:20;30.90;;;26.88;;
77166;SDS011;66141;7.324;79.980;2022-12-18T00:15:25;31.05;;;27.10;;
77166;SDS011;66141;7.324;79.980;2022-12-18T00:15:33;31.05;;;27.27;;
77166;SDS011;66141;7.324;79.980;2022-12-18T00:15:39;31.37;;;27.73;;
77166;SDS011;66141;7.324;79.980;2022-12-18T00:15:45;32.25;;;28.25;;
77166;SDS011;66141;7.324;79.980;2022-12-18T00:15:51;33.35;;;28.77;;
77166;SDS011;66141;7.324;79.980;2022-12-18T00:16:01;33.00;;;28.80;;
77166;SDS011;66141;7.324;79.980;2022-12-18T00:16:09;32.35;;;28.70;;
77166;SDS011;66141;7.324;79.980;2022-12-18T00:16:16;31.47;;;28.07;;
77166;SDS011;66141;7.324;79.980;2022-12-18T00:16:22;30.73;;;27.40;;
77166;SDS011;66141;7.324;79.980;2022-12-18T00:16:29;31.06;;;27.60;;
77166;SDS011;66141;7.324;79.980;2022-12-18T00:16:38;31.14;;;27.54;;
77166;SDS011;66141;7.324;79.980;2022-12-18T00:16:44;31.33;;;27.67;;
77166;SDS011;66141;7.324;79.980;2022-12-18T00:16:50;31.47;;;28.07;;
77166;SDS011;66141;7.324;79.980;2022-12-18T00:16:56;31.83;;;28.33;;
77166;SDS011;66141;7.324;79.980;2022-12-18T00:17:03;32.40;;;28.67;;
77166;SDS011;66141;7.324;79.980;2022-12-18T00:17:09;32.58;;;28.65;;
77166;SDS011;66141;7.324;79.980;2022-12-18T00:17:15;33.67;;;28.75;;
77166;SDS011;66141;7.324;79.980;2022-12-18T00:17:21;33.40;;;28.60;;
77166;SDS011;66141;7.324;79.980;2022-12-18T00:17:26;32.78;;;28.30;;
77166;SDS011;66141;7.324;79.980;2022-12-18T00:17:32;32.47;;;28.20;;
77166;SDS011;66141;7.324;79.980;2022-12-18T00:17:38;32.10;;;27.90;;
77166;SDS011;66141;7.324;79.980;2022-12-18T00:17:44;31.52;;;28.08;;
77166;SDS011;66141;7.324;79.980;2022-12-18T00:17:49;31.57;;;28.10;;
77166;SDS011;66141;7.324;79.980;2022-12-18T00:17:55;32.00;;;28.00;;
77166;SDS011;66141;7.324;79.980;2022-12-18T00:18:01;32.50;;;28.38;;
77166;SDS011;66141;7.324;79.980;2022-12-18T00:18:07;32.72;;;28.48;;
77166;SDS011;66141;7.324;79.980;2022-12-18T00:18:13;33.05;;;28.35;;
77166;SDS011;66141;7.324;79.980;2022-12-18T00:18:19;33.13;;;28.13;;
77166;SDS011;66141;7.324;79.980;2022-12-18T00:18:25;33.15;;;28.75;;
77166;SDS011;66141;7.324;79.980;2022-12-18T00:18:31;33.13;;;28.58;;
77166;SDS011;66141;7.324;79.980;2022-12-18T00:18:37;33.03;;;28.30;;
77166;SDS011;66141;7.324;79.980;2022-12-18T00:18:42;33.03;;;28.27;;
77166;SDS011;66141;7.324;79.980;2022-12-18T00:18:49;33.25;;;28.13;;
77166;SDS011;66141;7.324;79.980;2022-12-18T00:18:58;34.20;;;28.04;;
77166;SDS011;66141;7.324;79.980;2022-12-18T00:19:05;33.80;;;27.81;;
77166;SDS011;66141;7.324;79.980;2022-12-18T00:19:11;33.80;;;27.83;;
77166;SDS011;66141;7.324;79.980;2022-12-18T00:19:18;32.98;;;27.80;;
77166;SDS011;66141;7.324;79.980;2022-12-18T00:19:23;31.80;;;27.80;;
77166;SDS011;66141;7.324;79.980;2022-12-18T00:19:29;31.92;;;28.05;;
77166;SDS011;66141;7.324;79.980;2022-12-18T00:19:35;31.83;;;27.83;;
77166;SDS011;66141;7.324;79.980;2022-12-18T00:19:41;31.70;;;27.50;;
77166;SDS011;66141;7.324;79.980;2022-12-18T00:19:47;31.85;;;27.58;;
77166;SDS011;66141;7.324;79.980;2022-12-18T00:19:52;31.98;;;27.23;;
77166;SDS011;66141;7.324;79.980;2022-12-18T00:19:58;31.67;;;27.13;;
77166;SDS011;66141;7.324;79.980;2022-12-18T00:20:04;31.60;;;27.23;;
77166;SDS011;66141;7.324;79.980;2022-12-18T00:20:10;31.23;;;27.40;;
77166;SDS011;66141;7.324;79.980;2022-12-18T00:20:16;30.83;;;27.02;;
77166;SDS011;66141;7.324;79.980;2022-12-18T00:20:26;31.53;;;27.47;;
77166;SDS011;66141;7.324;79.980;2022-12-18T00:20:36;31.93;;;27.70;;
77166;SDS011;66141;7.324;79.980;2022-12-18T00:20:42;32.49;;;28.10;;
77166;SDS011;66141;7.324;79.980;2022-12-18T00:20:48;32.65;;;28.48;;
77166;SDS011;66141;7.324;79.980;2022-12-18T00:20:53;32.20;;;28.33;;
77166;SDS011;66141;7.324;79.980;2022-12-18T00:21:00;32.37;;;28.07;;
77166;SDS011;66141;7.324;79.980;2022-12-18T00:21:07;32.23;;;28.27;;
77166;SDS011;66141;7.324;79.980;2022-12-18T00:21:13;32.87;;;28.83;;
77166;SDS011;66141;7.324;79.980;2022-12-18T00:21:19;32.47;;;28.33;;
77166;SDS011;66141;7.324;79.980;2022-12-18T00:21:26;31.63;;;28.13;;
77166;SDS011;66141;7.324;79.980;2022-12-18T00:21:32;31.66;;;28.02;;
77166;SDS011;66141;7.324;79.980;2022-12-18T00:21:42;31.70;;;27.58;;
77166;SDS011;66141;7.324;79.980;2022-12-18T00:21:48;31.59;;;27.83;;
77166;SDS011;66141;7.324;79.980;2022-12-18T00:21:53;32.33;;;28.38;;
77166;SDS011;66141;7.324;79.980;2022-12-18T00:21:59;32.53;;;28.38;;
77166;SDS011;66141;7.324;79.980;2022-12-18T00:22:05;32.58;;;28.60;;
77166;SDS011;66141;7.324;79.980;2022-12-18T00:22:11;32.10;;;28.20;;
77166;SDS011;66141;7.324;79.980;2022-12-18T00:22:17;31.58;;;27.48;;
77166;SDS011;66141;7.324;79.980;2022-12-18T00:22:23;31.13;;;26.80;;
77166;SDS011;66141;7.324;79.980;2022-12-18T00:22:28;30.38;;;26.65;;
77166;SDS011;66141;7.324;79.980;2022-12-18T00:22:34;29.88;;;26.35;;
77166;SDS011;66141;7.324;79.980;2022-12-18T00:22:40;30.27;;;26.98;;
77166;SDS011;66141;7.324;79.980;2022-12-18T00:22:46;30.53;;;27.23;;
77166;SDS011;66141;7.324;79.980;2022-12-18T00:22:52;31.27;;;27.92;;
77166;SDS011;66141;7.324;79.980;2022-12-18T00:22:58;31.42;;;28.02;;
77166;SDS011;66141;7.324;79.980;2022-12-18T00:23:04;30.92;;;27.63;;
77166;SDS011;66141;7.324;79.980;2022-12-18T00:23:10;30.30;;;27.00;;
77166;SDS011;66141;7.324;79.980;2022-12-18T00:23:16;30.30;;;26.90;;
77166;SDS011;66141;7.324;79.980;2022-12-18T00:23:22;30.38;;;26.67;;
77166;SDS011;66141;7.324;79.980;2022-12-18T00:23:28;30.30;;;26.58;;
77166;SDS011;66141;7.324;79.980;2022-12-18T00:23:34;30.17;;;26.67;;
77166;SDS011;66141;7.324;79.980;2022-12-18T00:23:41;29.97;;;26.60;;
77166;SDS011;66141;7.324;79.980;2022-12-18T00:23:47;29.96;;;26.70;;
77166;SDS011;66141;7.324;79.980;2022-12-18T00:23:54;30.13;;;26.87;;
77166;SDS011;66141;7.324;79.980;2022-12-18T00:24:00;30.42;;;27.15;;
77166;SDS011;66141;7.324;79.980;2022-12-18T00:24:06;30.77;;;27.42;;
77166;SDS011;66141;7.324;79.980;2022-12-18T00:24:12;31.25;;;27.58;;
77166;SDS011;66141;7.324;79.980;2022-12-18T00:24:17;31.33;;;27.70;;
77166;SDS011;66141;7.324;79.980;2022-12-18T00:24:24;30.87;;;27.23;;
77166;SDS011;66141;7.324;79.980;2022-12-18T00:24:30;30.88;;;27.15;;
77166;SDS011;66141;7.324;79.980;2022-12-18T00:24:35;30.98;;;27.17;;
77166;SDS011;66141;7.324;79.980;2022-12-18T00:24:41;30.87;;;26.93;;
77166;SDS011;66141;7.324;79.980;2022-12-18T00:24:47;31.08;;;26.98;;
77166;SDS011;66141;7.324;79.980;2022-12-18T00:24:53;31.50;;;27.38;;
77166;SDS011;66141;7.324;79.980;2022-12-18T00:24:59;32.25;;;27.92;;
77166;SDS011;66141;7.324;79.980;2022-12-18T00:25:05;32.17;;;28.20;;
77166;SDS011;66141;7.324;79.980;2022-12-18T00:25:11;32.42;;;28.45;;
77166;SDS011;66141;7.324;79.980;2022-12-18T00:25:16;32.47;;;28.55;;
77166;SDS011;66141;7.324;79.980;2022-12-18T00:25:22;31.97;;;28.07;;
77166;SDS011;66141;7.324;79.980;2022-12-18T00:25:28;31.80;;;27.80;;
77166;SDS011;66141;7.324;79.980;2022-12-18T00:25:34;31.75;;;27.58;;
77166;SDS011;66141;7.324;79.980;2022-12-18T00:25:40;31.88;;;27.52;;
77166;SDS011;66141;7.324;79.980;2022-12-18T00:25:46;31.65;;;27.13;;
77166;SDS011;66141;7.324;79.980;2022-12-18T00:25:52;31.45;;;27.00;;
77166;SDS011;66141;7.324;79.980;2022-12-18T00:25:58;31.13;;;26.65;;
77166;SDS011;66141;7.324;79.980;2022-12-18T00:26:06;30.33;;;26.10;;
77166;SDS011;66141;7.324;79.980;2022-12-18T00:26:30;29.86;;;25.86;;
77166;SDS011;66141;7.324;79.980;2022-12-18T00:26:37;30.19;;;26.44;;
77166;SDS011;66141;7.324;79.980;2022-12-18T00:26:43;31.30;;;27.76;;
77166;SDS011;66141;7.324;79.980;2022-12-18T00:26:49;31.80;;;28.10;;
77166;SDS011;66141;7.324;79.980;2022-12-18T00:26:54;31.88;;;28.10;;
77166;SDS011;66141;7.324;79.980;2022-12-18T00:27:00;32.50;;;28.02;;
77166;SDS011;66141;7.324;79.980;2022-12-18T00:27:06;33.00;;;28.27;;
77166;SDS011;66141;7.324;79.980;2022-12-18T00:27:12;32.87;;;28.13;;
77166;SDS011;66141;7.324;79.980;2022-12-18T00:27:18;32.63;;;27.98;;
77166;SDS011;66141;7.324;79.980;2022-12-18T00:27:24;32.22;;;27.88;;
77166;SDS011;66141;7.324;79.980;2022-12-18T00:27:30;31.92;;;27.83;;
77166;SDS011;66141;7.324;79.980;2022-12-18T00:27:35;31.75;;;27.63;;
77166;SDS011;66141;7.324;79.980;2022-12-18T00:27:41;31.67;;;27.80;;
77166;SDS011;66141;7.324;79.980;2022-12-18T00:27:47;31.40;;;27.77;;
77166;SDS011;66141;7.324;79.980;2022-12-18T00:27:53;32.45;;;28.10;;
77166;SDS011;66141;7.324;79.980;2022-12-18T00:27:59;32.22;;;27.80;;
77166;SDS011;66141;7.324;79.980;2022-12-18T00:28:04;32.20;;;27.77;;
77166;SDS011;66141;7.324;79.980;2022-12-18T00:28:10;32.30;;;27.83;;
77166;SDS011;66141;7.324;79.980;2022-12-18T00:28:16;32.63;;;28.17;;
77166;SDS011;66141;7.324;79.980;2022-12-18T00:28:22;32.15;;;28.27;;
77166;SDS011;66141;7.324;79.980;2022-12-18T00:28:28;32.22;;;28.73;;
77166;SDS011;66141;7.324;79.980;2022-12-18T00:28:33;31.63;;;28.17;;
77166;SDS011;66141;7.324;79.980;2022-12-18T00:28:39;31.30;;;27.90;;
77166;SDS011;66141;7.324;79.980;2022-12-18T00:28:45;31.23;;;27.83;;
77166;SDS011;66141;7.324;79.980;2022-12-18T00:28:52;30.60;;;27.20;;
77166;SDS011;66141;7.324;79.980;2022-12-18T00:28:58;30.76;;;27.06;;
77166;SDS011;66141;7.324;79.980;2022-12-18T00:29:06;31.87;;;28.33;;
77166;SDS011;66141;7.324;79.980;2022-12-18T00:29:12;31.83;;;28.33;;
77166;SDS011;66141;7.324;79.980;2022-12-18T00:29:21;31.90;;;28.21;;
77166;SDS011;66141;7.324;79.980;2022-12-18T00:29:27;31.30;;;27.88;;
77166;SDS011;66141;7.324;79.980;2022-12-18T00:29:33;30.25;;;26.90;;
77166;SDS011;66141;7.324;79.980;2022-12-18T00:29:39;30.35;;;26.52;;
77166;SDS011;66141;7.324;79.980;2022-12-18T00:29:45;30.17;;;26.38;;
77166;SDS011;66141;7.324;79.980;2022-12-18T00:29:50;29.83;;;26.23;;
77166;SDS011;66141;7.324;79.980;2022-12-18T00:29:56;30.13;;;26.35;;
77166;SDS011;66141;7.324;79.980;2022-12-18T00:30:02;30.67;;;26.90;;
77166;SDS011;66141;7.324;79.980;2022-12-18T00:30:08;30.58;;;27.23;;
77166;SDS011;66141;7.324;79.980;2022-12-18T00:30:14;30.53;;;27.23;;
77166;SDS011;66141;7.324;79.980;2022-12-18T00:30:20;30.52;;;27.23;;
77166;SDS011;66141;7.324;79.980;2022-12-18T00:30:26;30.70;;;27.38;;
77166;SDS011;66141;7.324;79.980;2022-12-18T00:30:32;30.77;;;27.43;;
77166;SDS011;66141;7.324;79.980;2022-12-18T00:30:37;30.48;;;27.17;;
77166;SDS011;66141;7.324;79.980;2022-12-18T00:30:43;30.63;;;27.33;;
77166;SDS011;66141;7.324;79.980;2022-12-18T00:30:49;30.92;;;27.60;;
77166;SDS011;66141;7.324;79.980;2022-12-18T00:31:02;31.48;;;28.06;;
77166;SDS011;66141;7.324;79.980;2022-12-18T00:31:13;31.67;;;28.08;;
77166;SDS011;66141;7.324;79.980;2022-12-18T00:31:20;32.27;;;28.23;;
77166;SDS011;66141;7.324;79.980;2022-12-18T00:31:26;31.38;;;27.52;;
77166;SDS011;66141;7.324;79.980;2022-12-18T00:31:32;30.55;;;26.77;;
77166;SDS011;66141;7.324;79.980;2022-12-18T00:31:38;30.17;;;26.43;;
77166;SDS011;66141;7.324;79.980;2022-12-18T00:31:44;29.92;;;26.05;;
77166;SDS011;66141;7.324;79.980;2022-12-18T00:31:50;29.63;;;25.65;;
77166;SDS011;66141;7.324;79.980;2022-12-18T00:31:55;30.27;;;25.92;;
77166;SDS011;66141;7.324;79.980;2022-12-18T00:32:01;30.70;;;26.00;;
77166;SDS011;66141;7.324;79.980;2022-12-18T00:32:07;30.63;;;26.02;;
77166;SDS011;66141;7.324;79.980;2022-12-18T00:32:13;30.42;;;25.63;;
77166;SDS011;66141;7.324;79.980;2022-12-18T00:32:18;30.08;;;25.60;;
77166;SDS011;66141;7.324;79.980;2022-12-18T00:32:24;29.33;;;25.00;;
77166;SDS011;66141;7.324;79.980;2022-12-18T00:32:30;29.23;;;24.90;;
77166;SDS011;66141;7.324;79.980;2022-12-18T00:32:36;29.27;;;25.15;;
77166;SDS011;66141;7.324;79.980;2022-12-18T00:32:42;29.23;;;25.45;;
77166;SDS011;66141;7.324;79.980;2022-12-18T00:32:48;29.35;;;25.75;;
77166;SDS011;66141;7.324;79.980;2022-12-18T00:32:54;29.48;;;26.00;;
77166;SDS011;66141;7.324;79.980;2022-12-18T00:32:59;29.67;;;26.38;;
77166;SDS011;66141;7.324;79.980;2022-12-18T00:33:05;30.20;;;26.57;;
77166;SDS011;66141;7.324;79.980;2022-12-18T00:33:11;30.95;;;26.73;;
77166;SDS011;66141;7.324;79.980;2022-12-18T00:33:17;31.40;;;27.00;;
77166;SDS011;66141;7.324;79.980;2022-12-18T00:33:23;31.45;;;26.88;;
77166;SDS011;66141;7.324;79.980;2022-12-18T00:33:29;31.90;;;26.90;;
77166;SDS011;66141;7.324;79.980;2022-12-18T00:33:35;31.80;;;26.87;;
77166;SDS011;66141;7.324;79.980;2022-12-18T00:33:41;31.30;;;26.60;;
77166;SDS011;66141;7.324;79.980;2022-12-18T00:33:47;31.10;;;26.40;;
77166;SDS011;66141;7.324;79.980;2022-12-18T00:33:53;30.80;;;26.33;;
77166;SDS011;66141;7.324;79.980;2022-12-18T00:34:01;30.30;;;26.07;;
77166;SDS011;66141;7.324;79.980;2022-12-18T00:34:08;30.00;;;25.90;;
77166;SDS011;66141;7.324;79.980;2022-12-18T00:34:14;30.77;;;26.30;;
77166;SDS011;66141;7.324;79.980;2022-12-18T00:34:21;31.67;;;27.10;;
77166;SDS011;66141;7.324;79.980;2022-12-18T00:34:26;31.75;;;27.80;;
77166;SDS011;66141;7.324;79.980;2022-12-18T00:34:32;31.58;;;27.98;;
77166;SDS011;66141;7.324;79.980;2022-12-18T00:34:38;31.38;;;27.90;;
77166;SDS011;66141;7.324;79.980;2022-12-18T00:34:44;31.03;;;27.63;;
77166;SDS011;66141;7.324;79.980;2022-12-18T00:34:50;30.95;;;27.23;;
77166;SDS011;66141;7.324;79.980;2022-12-18T00:34:55;31.13;;;26.80;;
77166;SDS011;66141;7.324;79.980;2022-12-18T00:35:01;31.42;;;26.60;;
77166;SDS011;66141;7.324;79.980;2022-12-18T00:35:07;32.10;;;26.80;;
77166;SDS011;66141;7.324;79.980;2022-12-18T00:35:13;33.00;;;27.47;;
77166;SDS011;66141;7.324;79.980;2022-12-18T00:35:19;33.00;;;27.77;;
77166;SDS011;66141;7.324;79.980;2022-12-18T00:35:25;33.03;;;28.25;;
77166;SDS011;66141;7.324;79.980;2022-12-18T00:35:31;33.17;;;28.42;;
77166;SDS011;66141;7.324;79.980;2022-12-18T00:35:37;32.80;;;28.37;;
77166;SDS011;66141;7.324;79.980;2022-12-18T00:35:43;31.92;;;28.13;;
77166;SDS011;66141;7.324;79.980;2022-12-18T00:35:48;31.85;;;28.10;;
77166;SDS011;66141;7.324;79.980;2022-12-18T00:35:54;31.58;;;27.83;;
77166;SDS011;66141;7.324;79.980;2022-12-18T00:36:01;32.03;;;27.97;;
77166;SDS011;66141;7.324;79.980;2022-12-18T00:36:09;32.26;;;27.98;;
77166;SDS011;66141;7.324;79.980;2022-12-18T00:36:21;31.90;;;27.33;;
77166;SDS011;66141;7.324;79.980;2022-12-18T00:36:28;31.61;;;27.09;;
77166;SDS011;66141;7.324;79.980;2022-12-18T00:36:34;31.20;;;27.18;;
77166;SDS011;66141;7.324;79.980;2022-12-18T00:36:40;31.47;;;27.47;;
77166;SDS011;66141;7.324;79.980;2022-12-18T00:36:47;31.77;;;27.65;;
77166;SDS011;66141;7.324;79.980;2022-12-18T00:36:52;31.63;;;27.80;;
77166;SDS011;66141;7.324;79.980;2022-12-18T00:36:58;31.23;;;27.43;;
77166;SDS011;66141;7.324;79.980;2022-12-18T00:37:04;30.35;;;26.98;;
77166;SDS011;66141;7.324;79.980;2022-12-18T00:37:10;30.00;;;26.70;;
77166;SDS011;66141;7.324;79.980;2022-12-18T00:37:16;29.63;;;26.40;;